Impacts METAR Board INFO
IDs:

KCLE - Cleveland/Hopkins In, OH, US

Updated at: 0626 UTC 14 Dec 2017
Potential Impact None Slight Moderate High
Time13/18Z 13/19Z 13/20Z 13/21Z 13/22Z 13/23Z 14/00Z 14/01Z 14/02Z 14/03Z 14/04Z 14/05Z 14/06Z
VIS1.5 2 1 10 10 6 1.25 2 3 1.25 1 1 2
CIG23 21 18 42 75 29 13 15 30 15 15 12 31
CoverOVCOVCOVXOVCOVCOVCOVCOVCOVCOVCOVXOVCOVC
FltCatIFRIFRIFRVFRVFRMVFRIFRIFRMVFRIFRIFRIFRIFR
WX-SN-SN-SN BR-----SN-SN BR-SN BR-SN BR-SN BR-SN BR-SN BR-SN BR
WDir2001801701401601601701601501601504040
WSpd9 8 11 11 14 12 10 11 11 11 7 8 9
WGst-- -- -- -- -- -- -- -- -- -- -- -- --
Raw hourly METARs
KCLE 131751Z 20009KT 1 1/2SM -SN FEW015 BKN023 OVC031 M06/M08 A2972 RMK AO2 SNB1655 PRESFR SLP077 4/001 P0000 60001 T10561083 11050 21083 58037
KCLE 131905Z 18008KT 2SM -SN FEW012 BKN021 OVC038 M06/M08 A2965 RMK AO2 PRESFR P0001 T10561083
KCLE 131951Z 17011KT 1SM -SN BR VV018 M06/M08 A2962 RMK AO2 SLP042 P0002 T10611083
KCLE 132051Z 14011KT 10SM BKN042 OVC080 M06/M09 A2956 RMK AO2 SNE43 SLP020 P0001 60005 T10561089 58056
KCLE 132151Z 16014KT 10SM FEW047 OVC075 M06/M09 A2951 RMK AO2 SLP004 T10561089
KCLE 132300Z 16012KT 6SM -SN OVC029 M05/M09 A2952 RMK AO2 P0000 T10501094
KCLE 140002Z 17010KT 1 1/4SM -SN BR OVC013 M06/M08 A2952 RMK AO2 P0001 T10561078
KCLE 140103Z 16011KT 2SM -SN BR OVC015 M06/M08 A2947 RMK AO2 P0001 T10561078
KCLE 140200Z 15011KT 3SM -SN BR FEW022 OVC030 M06/M08 A2942 RMK AO2 P0001 T10561078
KCLE 140251Z 16011KT 1 1/4SM -SN BR OVC015 M05/M07 A2939 RMK AO2 SLP963 P0003 60009 T10501067 56043
KCLE 140351Z 15007KT 1SM -SN BR VV015 M04/M06 A2938 RMK AO2 SLP960 P0002 T10441061
KCLE 140451Z 04008KT 1SM -SN BR OVC012 M04/M06 A2940 RMK AO2 SLP967 P0003 T10391056 410391083
KCLE 140603Z 04009KT 2SM -SN BR FEW019 SCT026 OVC031 M04/M06 A2944 RMK AO2 P0001 T10391056